createdAt,value
2023-03-22T00:00:39.902Z,8.45
2023-03-22T00:01:43.443Z,8.46
2023-03-22T00:02:46.423Z,8.53
2023-03-22T00:03:50.825Z,8.43
2023-03-22T00:04:54.153Z,8.41
2023-03-22T00:05:57.980Z,8.40
2023-03-22T00:07:00.842Z,8.34
2023-03-22T00:08:07.489Z,8.26
2023-03-22T00:09:10.417Z,8.40
2023-03-22T00:10:13.287Z,8.35
2023-03-22T00:11:16.333Z,8.18
2023-03-22T00:12:19.175Z,8.18
2023-03-22T00:13:22.072Z,7.99
2023-03-22T00:14:25.142Z,8.17
2023-03-22T00:15:29.834Z,8.14
2023-03-22T00:16:33.102Z,8.23
2023-03-22T00:17:36.867Z,8.04
2023-03-22T00:18:39.723Z,8.08
2023-03-22T00:19:45.424Z,8.07
2023-03-22T00:20:50.351Z,8.03
2023-03-22T00:21:53.267Z,8.12
2023-03-22T00:22:56.889Z,8.07
2023-03-22T00:23:59.812Z,8.06
2023-03-22T00:25:02.671Z,7.98
2023-03-22T00:26:06.069Z,7.86
2023-03-22T00:27:08.952Z,7.80
2023-03-22T00:28:13.013Z,7.73
2023-03-22T00:29:16.205Z,7.71
2023-03-22T00:30:19.211Z,7.60
2023-03-22T00:31:22.220Z,7.51
2023-03-22T00:32:25.344Z,7.53
2023-03-22T00:33:29.736Z,7.54
2023-03-22T00:34:33.794Z,7.44
2023-03-22T00:35:36.809Z,7.61
2023-03-22T00:36:40.358Z,7.55
2023-03-22T00:37:43.264Z,7.56
2023-03-22T00:38:46.261Z,7.51
2023-03-22T00:39:49.201Z,7.51
2023-03-22T00:40:52.086Z,7.43
2023-03-22T00:41:54.992Z,7.26
2023-03-22T00:42:58.131Z,7.31
2023-03-22T00:44:01.389Z,7.25
2023-03-22T00:45:05.179Z,7.20
2023-03-22T00:46:09.596Z,7.28
2023-03-22T00:47:12.612Z,7.24
2023-03-22T00:48:15.650Z,7.23
2023-03-22T00:49:19.243Z,7.25
2023-03-22T00:50:22.323Z,7.31
2023-03-22T00:51:25.506Z,7.35
2023-03-22T00:52:32.023Z,7.48
2023-03-22T00:53:36.726Z,7.42
2023-03-22T00:54:39.755Z,7.56
2023-03-22T00:55:42.657Z,7.51
2023-03-22T00:56:45.712Z,7.52
2023-03-22T00:57:48.716Z,7.59
2023-03-22T00:58:51.685Z,7.60
2023-03-22T00:59:56.086Z,7.73
2023-03-22T01:00:59.462Z,7.68
2023-03-22T01:02:04.421Z,7.83
2023-03-22T01:03:07.565Z,7.83
2023-03-22T01:04:15.765Z,7.95
2023-03-22T01:05:22.326Z,7.91
2023-03-22T01:06:25.706Z,7.94
2023-03-22T01:07:28.580Z,8.01
2023-03-22T01:08:33.670Z,8.14
2023-03-22T01:09:36.925Z,8.23
2023-03-22T01:10:41.186Z,8.14
2023-03-22T01:11:44.408Z,8.09
2023-03-22T01:12:47.664Z,8.07
2023-03-22T01:13:50.997Z,8.10
2023-03-22T01:14:53.861Z,8.12
2023-03-22T01:15:56.910Z,8.05
2023-03-22T01:17:00.391Z,7.99
2023-03-22T01:18:04.349Z,8.04
2023-03-22T01:19:07.568Z,8.08
2023-03-22T01:20:11.402Z,8.01
2023-03-22T01:21:14.352Z,7.96
2023-03-22T01:22:17.164Z,7.89
2023-03-22T01:23:20.050Z,7.94
2023-03-22T01:24:23.023Z,8.14
2023-03-22T01:25:25.992Z,7.95
2023-03-22T01:26:28.848Z,7.84
2023-03-22T01:27:33.193Z,7.58
2023-03-22T01:28:36.212Z,7.65
2023-03-22T01:29:39.094Z,7.77
2023-03-22T01:30:42.546Z,7.75
2023-03-22T01:31:45.896Z,7.57
2023-03-22T01:32:48.690Z,7.40
2023-03-22T01:33:51.647Z,7.50
2023-03-22T01:34:54.776Z,7.42
2023-03-22T01:35:57.639Z,7.43
2023-03-22T01:37:00.627Z,7.38
2023-03-22T01:38:04.410Z,7.47
2023-03-22T01:39:07.489Z,7.37
2023-03-22T01:40:13.074Z,7.25
2023-03-22T01:41:17.638Z,7.35
2023-03-22T01:42:22.832Z,7.29
2023-03-22T01:43:25.910Z,7.26
2023-03-22T01:44:30.815Z,7.23
2023-03-22T01:45:47.828Z,7.27
2023-03-22T01:46:52.132Z,7.09
2023-03-22T01:48:14.074Z,7.14
2023-03-22T01:49:23.948Z,7.16
2023-03-22T01:50:28.144Z,7.26
2023-03-22T01:51:31.370Z,7.36
2023-03-22T01:52:34.707Z,7.35
2023-03-22T01:53:43.522Z,7.11
2023-03-22T01:54:53.049Z,7.01
2023-03-22T01:55:58.178Z,6.86
2023-03-22T01:57:01.788Z,6.91
2023-03-22T01:58:05.223Z,7.04
2023-03-22T01:59:13.063Z,6.97
2023-03-22T02:00:19.212Z,6.94
2023-03-22T02:01:24.061Z,6.95
2023-03-22T02:02:31.137Z,6.83
2023-03-22T02:03:53.074Z,6.81
2023-03-22T02:04:58.276Z,6.84
2023-03-22T02:06:01.192Z,6.79
2023-03-22T02:07:15.724Z,6.71
2023-03-22T02:08:19.084Z,6.79
2023-03-22T02:09:22.386Z,6.70
2023-03-22T02:10:27.654Z,6.68
2023-03-22T02:11:43.071Z,6.53
2023-03-22T02:13:13.731Z,6.60
2023-03-22T02:14:31.789Z,6.54
2023-03-22T02:15:47.274Z,6.36
2023-03-22T02:17:08.335Z,6.37
2023-03-22T02:18:24.632Z,6.36
2023-03-22T02:20:11.331Z,6.44
2023-03-22T02:21:58.629Z,6.49
2023-03-22T02:23:48.978Z,6.42
2023-03-22T02:24:51.715Z,6.40
2023-03-22T02:26:13.182Z,6.42
2023-03-22T02:27:46.079Z,6.28
2023-03-22T02:28:56.914Z,6.29
2023-03-22T02:30:19.523Z,6.24
2023-03-22T02:31:36.382Z,6.28
2023-03-22T02:33:12.945Z,6.30
2023-03-22T02:34:33.082Z,6.25
2023-03-22T02:35:46.373Z,6.37
2023-03-22T02:37:17.713Z,6.35
2023-03-22T02:38:20.523Z,6.22
2023-03-22T02:39:29.364Z,6.12
2023-03-22T02:40:32.768Z,6.25
2023-03-22T02:41:56.256Z,6.33
2023-03-22T02:43:38.851Z,6.19
2023-03-22T02:44:49.244Z,6.23
2023-03-22T02:45:59.054Z,6.15
2023-03-22T02:47:41.415Z,6.27
2023-03-22T02:49:03.097Z,6.36
2023-03-22T02:50:18.034Z,6.40
2023-03-22T02:51:34.730Z,6.41
2023-03-22T02:52:46.768Z,6.49
2023-03-22T02:54:10.601Z,6.59
2023-03-22T02:55:30.426Z,6.58
2023-03-22T02:56:57.036Z,6.67
2023-03-22T02:58:22.338Z,6.82
2023-03-22T02:59:27.360Z,6.91
2023-03-22T03:00:33.158Z,6.88
2023-03-22T03:01:53.030Z,6.79
2023-03-22T03:03:01.330Z,6.80
2023-03-22T03:04:11.317Z,6.80
2023-03-22T03:05:16.662Z,6.95
2023-03-22T03:06:26.082Z,7.00
2023-03-22T03:07:31.685Z,7.02
2023-03-22T03:08:37.417Z,7.03
2023-03-22T03:09:43.055Z,7.23
2023-03-22T03:10:46.774Z,7.35
2023-03-22T03:11:52.586Z,7.35
2023-03-22T03:12:55.685Z,7.35
2023-03-22T03:13:58.546Z,7.46
2023-03-22T03:15:01.376Z,7.73
2023-03-22T03:16:08.170Z,7.72
2023-03-22T03:17:41.548Z,7.81
2023-03-22T03:19:02.882Z,7.89
2023-03-22T03:20:22.392Z,8.10
2023-03-22T03:21:34.998Z,8.09
2023-03-22T03:22:44.146Z,8.13
2023-03-22T03:24:18.462Z,8.10
2023-03-22T03:25:32.312Z,8.18
2023-03-22T03:27:07.473Z,8.16
2023-03-22T03:28:30.784Z,8.21
2023-03-22T03:29:42.514Z,8.17
2023-03-22T03:30:54.461Z,8.20
2023-03-22T03:32:26.633Z,8.21
2023-03-22T03:33:33.682Z,8.27
2023-03-22T03:34:49.749Z,8.20
2023-03-22T03:36:01.805Z,8.28
2023-03-22T03:37:12.320Z,8.35
2023-03-22T03:38:23.729Z,8.21
2023-03-22T03:39:31.514Z,8.05
2023-03-22T03:40:38.249Z,7.91
2023-03-22T03:41:43.969Z,7.94
2023-03-22T03:42:51.905Z,7.94
2023-03-22T03:43:57.899Z,7.95
2023-03-22T03:45:01.908Z,7.90
2023-03-22T03:46:06.786Z,7.84
2023-03-22T03:47:12.279Z,7.85
2023-03-22T03:48:26.926Z,7.92
2023-03-22T03:49:29.987Z,8.01
2023-03-22T03:50:33.309Z,7.84
2023-03-22T03:51:47.777Z,7.61
2023-03-22T03:52:51.149Z,7.42
2023-03-22T03:53:54.033Z,7.31
2023-03-22T03:54:56.899Z,7.31
2023-03-22T03:55:59.845Z,7.44
2023-03-22T03:57:04.060Z,7.52
2023-03-22T03:58:09.299Z,7.66
2023-03-22T03:59:12.532Z,7.62
2023-03-22T04:00:16.205Z,7.69
2023-03-22T04:01:20.939Z,7.72
2023-03-22T04:02:24.076Z,7.68
2023-03-22T04:03:27.123Z,7.62
2023-03-22T04:04:30.293Z,7.51
2023-03-22T04:05:33.307Z,7.45
2023-03-22T04:06:36.012Z,7.34
2023-03-22T04:07:39.565Z,7.26
2023-03-22T04:08:45.899Z,7.22
2023-03-22T04:09:48.801Z,7.35
2023-03-22T04:10:52.223Z,7.38
2023-03-22T04:11:56.900Z,7.39
2023-03-22T04:12:59.693Z,7.52
2023-03-22T04:14:02.662Z,7.33
2023-03-22T04:15:06.053Z,7.28
2023-03-22T04:16:09.711Z,7.33
2023-03-22T04:17:12.718Z,7.22
2023-03-22T04:18:15.834Z,7.28
2023-03-22T04:19:19.694Z,7.31
2023-03-22T04:20:22.774Z,7.32
2023-03-22T04:21:25.712Z,7.27
2023-03-22T04:22:28.869Z,7.21
2023-03-22T04:23:33.661Z,7.26
2023-03-22T04:24:38.103Z,7.32
2023-03-22T04:25:42.002Z,7.29
2023-03-22T04:26:45.365Z,7.36
2023-03-22T04:27:51.337Z,7.28
2023-03-22T04:28:54.465Z,7.31
2023-03-22T04:29:58.249Z,7.39
2023-03-22T04:31:03.715Z,7.27
2023-03-22T04:32:06.684Z,7.24
2023-03-22T04:33:09.649Z,7.27
2023-03-22T04:34:12.555Z,7.25
2023-03-22T04:35:16.533Z,7.25
2023-03-22T04:36:19.918Z,7.19
2023-03-22T04:37:27.252Z,7.28
2023-03-22T04:38:30.095Z,7.32
2023-03-22T04:39:32.974Z,7.24
2023-03-22T04:40:39.025Z,7.19
2023-03-22T04:41:42.421Z,7.05
2023-03-22T04:42:45.818Z,7.10
2023-03-22T04:43:51.205Z,7.13
2023-03-22T04:44:53.997Z,7.08
2023-03-22T04:45:58.613Z,7.02
2023-03-22T04:47:01.534Z,6.96
2023-03-22T04:48:04.589Z,6.95
2023-03-22T04:49:07.548Z,6.97
2023-03-22T04:50:10.888Z,7.04
2023-03-22T04:51:14.026Z,6.91
2023-03-22T04:52:17.019Z,6.74
2023-03-22T04:53:19.988Z,6.75
2023-03-22T04:54:24.034Z,6.77
2023-03-22T04:55:27.855Z,6.79
2023-03-22T04:56:31.252Z,6.67
2023-03-22T04:57:35.471Z,6.70
2023-03-22T04:58:40.371Z,6.81
2023-03-22T04:59:43.397Z,6.90
2023-03-22T05:00:48.672Z,6.82
2023-03-22T05:01:51.829Z,6.84
2023-03-22T05:02:54.756Z,6.79
2023-03-22T05:03:57.731Z,6.79
2023-03-22T05:05:00.742Z,6.80
2023-03-22T05:06:06.795Z,6.83
2023-03-22T05:07:09.808Z,6.74
2023-03-22T05:08:14.641Z,6.76
2023-03-22T05:09:17.606Z,6.66
2023-03-22T05:10:21.266Z,6.71
2023-03-22T05:11:27.963Z,6.67
2023-03-22T05:12:30.939Z,6.65
2023-03-22T05:13:34.120Z,6.66
2023-03-22T05:14:37.088Z,6.68
2023-03-22T05:15:41.854Z,6.73
2023-03-22T05:16:45.478Z,6.75
2023-03-22T05:17:48.432Z,6.82
2023-03-22T05:18:54.656Z,6.88
2023-03-22T05:19:57.714Z,6.92
2023-03-22T05:21:04.083Z,6.95
2023-03-22T05:22:07.204Z,7.07
2023-03-22T05:23:10.531Z,7.09
2023-03-22T05:24:13.441Z,7.05
2023-03-22T05:25:16.414Z,7.07
2023-03-22T05:26:20.606Z,7.10
2023-03-22T05:27:34.486Z,7.14
2023-03-22T05:28:38.805Z,7.20
2023-03-22T05:29:45.294Z,7.24
2023-03-22T05:30:49.764Z,7.21
2023-03-22T05:31:52.842Z,7.21
2023-03-22T05:33:05.037Z,7.32
2023-03-22T05:34:08.341Z,7.31
2023-03-22T05:35:11.308Z,7.35
2023-03-22T05:36:14.340Z,7.51
2023-03-22T05:37:17.273Z,7.49
2023-03-22T05:38:23.055Z,7.57
2023-03-22T05:39:26.064Z,7.59
2023-03-22T05:40:29.434Z,7.66
2023-03-22T05:41:36.324Z,7.68
2023-03-22T05:42:39.505Z,7.68
2023-03-22T05:43:42.554Z,7.83
2023-03-22T05:44:45.507Z,7.84
2023-03-22T05:45:49.354Z,7.86
2023-03-22T05:46:52.452Z,8.04
2023-03-22T05:47:55.682Z,8.02
2023-03-22T05:48:58.827Z,8.02
2023-03-22T05:50:01.676Z,8.15
2023-03-22T05:51:19.552Z,8.13
2023-03-22T05:52:22.829Z,8.24
2023-03-22T05:53:25.656Z,8.24
2023-03-22T05:54:28.630Z,8.28
2023-03-22T05:55:32.264Z,8.29
2023-03-22T05:56:35.967Z,8.34
2023-03-22T05:57:39.974Z,8.47
2023-03-22T05:58:43.119Z,8.47
2023-03-22T05:59:46.320Z,8.53
2023-03-22T06:00:52.092Z,8.57
2023-03-22T06:01:55.127Z,8.60
2023-03-22T06:03:03.454Z,8.77
2023-03-22T06:04:07.091Z,8.75
2023-03-22T06:05:13.467Z,8.69
2023-03-22T06:06:16.375Z,8.83
2023-03-22T06:07:19.713Z,8.87
2023-03-22T06:08:25.414Z,8.94
2023-03-22T06:09:29.576Z,8.94
2023-03-22T06:10:32.418Z,9.04
2023-03-22T06:11:35.692Z,9.21
2023-03-22T06:12:38.747Z,9.36
2023-03-22T06:13:41.669Z,9.43
2023-03-22T06:14:44.616Z,9.38
2023-03-22T06:15:47.529Z,9.37
2023-03-22T06:16:51.085Z,9.42
2023-03-22T06:17:54.166Z,9.53
2023-03-22T06:18:57.021Z,9.38
2023-03-22T06:19:59.927Z,9.39
2023-03-22T06:21:02.949Z,9.31
2023-03-22T06:22:05.900Z,9.27
2023-03-22T06:23:08.848Z,9.55
2023-03-22T06:24:12.053Z,9.60
2023-03-22T06:25:15.150Z,9.76
2023-03-22T06:26:17.998Z,9.94
2023-03-22T06:27:22.801Z,9.72
2023-03-22T06:28:29.893Z,9.93
2023-03-22T06:29:33.469Z,9.94
2023-03-22T06:30:37.507Z,9.84
2023-03-22T06:31:40.823Z,9.86
2023-03-22T06:32:43.677Z,9.87
2023-03-22T06:33:46.826Z,9.98
2023-03-22T06:34:50.976Z,10.13
2023-03-22T06:35:53.883Z,10.10
2023-03-22T06:36:56.998Z,10.16
2023-03-22T06:38:00.400Z,10.29
2023-03-22T06:39:05.390Z,10.18
2023-03-22T06:40:09.564Z,10.28
2023-03-22T06:41:12.610Z,10.12
2023-03-22T06:42:15.972Z,10.04
2023-03-22T06:43:18.731Z,10.16
2023-03-22T06:44:22.910Z,10.10
2023-03-22T06:45:25.812Z,10.05
2023-03-22T06:46:29.115Z,10.31
2023-03-22T06:47:32.305Z,10.33
2023-03-22T06:48:36.417Z,10.41
2023-03-22T06:49:40.177Z,10.35
2023-03-22T06:50:45.333Z,10.27
2023-03-22T06:51:48.494Z,10.31
2023-03-22T06:52:51.460Z,10.25
2023-03-22T06:53:54.312Z,10.38
2023-03-22T06:54:59.974Z,10.20
2023-03-22T06:56:03.090Z,10.32
2023-03-22T06:57:06.137Z,10.31
2023-03-22T06:58:09.120Z,10.43
2023-03-22T06:59:12.038Z,10.45
2023-03-22T07:00:15.706Z,10.57
2023-03-22T07:01:19.876Z,10.53
2023-03-22T07:02:23.369Z,10.45
2023-03-22T07:03:26.441Z,10.79
2023-03-22T07:04:29.893Z,10.93
2023-03-22T07:05:32.760Z,10.74
2023-03-22T07:06:36.186Z,10.75
2023-03-22T07:07:39.229Z,10.66
2023-03-22T07:08:42.431Z,10.60
2023-03-22T07:09:45.140Z,10.95
2023-03-22T07:10:51.804Z,10.87
2023-03-22T07:11:54.999Z,10.81
2023-03-22T07:12:58.568Z,10.95
2023-03-22T07:14:01.720Z,10.89
2023-03-22T07:15:05.130Z,10.70
2023-03-22T07:16:08.765Z,10.55
2023-03-22T07:17:14.304Z,10.77
2023-03-22T07:18:17.275Z,10.78
2023-03-22T07:19:20.558Z,10.87
2023-03-22T07:20:23.516Z,10.93
2023-03-22T07:21:26.735Z,11.04
2023-03-22T07:22:29.754Z,11.09
2023-03-22T07:23:32.826Z,11.20
2023-03-22T07:24:40.320Z,11.24
2023-03-22T07:25:48.576Z,11.00
2023-03-22T07:26:51.537Z,10.91
2023-03-22T07:27:54.472Z,11.26
2023-03-22T07:28:57.786Z,11.42
2023-03-22T07:30:00.837Z,11.36
2023-03-22T07:31:07.054Z,11.03
2023-03-22T07:32:10.644Z,10.91
2023-03-22T07:33:14.359Z,11.06
2023-03-22T07:34:17.428Z,11.27
2023-03-22T07:35:20.616Z,11.39
2023-03-22T07:36:26.039Z,11.56
2023-03-22T07:37:29.315Z,11.60
2023-03-22T07:38:32.967Z,11.65
2023-03-22T07:39:35.935Z,11.69
2023-03-22T07:40:39.286Z,11.57
2023-03-22T07:41:42.470Z,11.48
2023-03-22T07:42:48.257Z,11.44
2023-03-22T07:43:56.798Z,11.64
2023-03-22T07:45:01.428Z,11.75
2023-03-22T07:46:05.051Z,11.85
2023-03-22T07:47:07.955Z,11.68
2023-03-22T07:48:12.201Z,11.50
2023-03-22T07:49:15.192Z,11.50
2023-03-22T07:50:18.869Z,11.57
2023-03-22T07:51:21.771Z,11.58
2023-03-22T07:52:24.957Z,11.67
2023-03-22T07:53:28.058Z,11.72
2023-03-22T07:54:34.220Z,11.54
2023-03-22T07:55:39.008Z,11.55
2023-03-22T07:56:42.884Z,11.51
2023-03-22T07:57:46.607Z,11.64
2023-03-22T07:58:49.569Z,11.66
2023-03-22T07:59:52.573Z,11.46
2023-03-22T08:00:55.291Z,11.33
2023-03-22T08:01:58.277Z,11.33
2023-03-22T08:03:02.086Z,11.41
2023-03-22T08:04:05.512Z,11.43
2023-03-22T08:05:08.973Z,11.43
2023-03-22T08:06:12.653Z,11.56
2023-03-22T08:07:19.050Z,11.52
2023-03-22T08:08:22.019Z,11.87
2023-03-22T08:09:26.398Z,11.73
2023-03-22T08:10:29.788Z,11.99
2023-03-22T08:11:33.059Z,12.02
2023-03-22T08:12:36.368Z,11.91
2023-03-22T08:13:39.985Z,12.07
2023-03-22T08:14:42.903Z,11.90
2023-03-22T08:15:47.406Z,12.03
2023-03-22T08:16:50.753Z,12.03
2023-03-22T08:17:58.170Z,12.01
2023-03-22T08:19:01.555Z,11.91
2023-03-22T08:20:08.927Z,12.01
2023-03-22T08:21:12.362Z,12.09
2023-03-22T08:22:15.639Z,12.10
2023-03-22T08:23:20.106Z,12.14
2023-03-22T08:24:26.310Z,11.93
2023-03-22T08:25:29.824Z,11.92
2023-03-22T08:26:32.711Z,11.77
2023-03-22T08:27:35.596Z,11.96
2023-03-22T08:28:40.976Z,11.98
2023-03-22T08:29:43.959Z,12.16
2023-03-22T08:30:48.220Z,12.13
2023-03-22T08:31:52.190Z,12.21
2023-03-22T08:32:55.022Z,12.00
2023-03-22T08:33:58.904Z,12.17
2023-03-22T08:35:01.720Z,12.28
2023-03-22T08:36:07.207Z,12.16
2023-03-22T08:37:12.511Z,11.96
2023-03-22T08:38:15.836Z,12.06
2023-03-22T08:39:18.752Z,11.87
2023-03-22T08:40:23.175Z,12.01
2023-03-22T08:41:26.072Z,12.04
2023-03-22T08:42:29.137Z,12.16
2023-03-22T08:43:32.045Z,12.28
2023-03-22T08:44:34.842Z,12.20
2023-03-22T08:45:38.199Z,12.20
2023-03-22T08:46:41.561Z,12.04
2023-03-22T08:47:45.225Z,12.27
2023-03-22T08:48:51.032Z,12.15
2023-03-22T08:49:54.455Z,12.25
2023-03-22T08:50:58.408Z,12.20
2023-03-22T08:52:01.335Z,12.12
2023-03-22T08:53:04.281Z,12.31
2023-03-22T08:54:07.657Z,12.10
2023-03-22T08:55:10.970Z,11.95
2023-03-22T08:56:16.980Z,11.97
2023-03-22T08:57:22.606Z,11.83
2023-03-22T08:58:25.459Z,11.99
2023-03-22T08:59:28.348Z,12.11
2023-03-22T09:00:42.443Z,12.26
2023-03-22T09:01:49.086Z,12.41
2023-03-22T09:02:52.272Z,12.22
2023-03-22T09:03:55.628Z,12.44
2023-03-22T09:04:58.621Z,12.53
2023-03-22T09:06:01.522Z,12.51
2023-03-22T09:07:04.781Z,12.46
2023-03-22T09:08:08.937Z,12.33
2023-03-22T09:09:12.262Z,12.31
2023-03-22T09:10:16.976Z,12.28
2023-03-22T09:11:20.942Z,12.15
2023-03-22T09:12:23.960Z,12.25
2023-03-22T09:13:27.042Z,12.49
2023-03-22T09:14:30.527Z,12.44
2023-03-22T09:15:33.310Z,12.50
2023-03-22T09:16:36.871Z,12.48
2023-03-22T09:17:39.981Z,12.19
2023-03-22T09:18:43.335Z,11.97
2023-03-22T09:19:48.093Z,12.07
2023-03-22T09:20:52.146Z,12.09
2023-03-22T09:21:55.855Z,12.27
2023-03-22T09:22:58.904Z,12.44
2023-03-22T09:24:02.393Z,12.49
2023-03-22T09:25:06.384Z,12.53
2023-03-22T09:26:09.678Z,12.45
2023-03-22T09:27:13.064Z,12.49
2023-03-22T09:28:17.332Z,12.51
2023-03-22T09:29:21.140Z,12.64
2023-03-22T09:30:24.409Z,12.54
2023-03-22T09:31:27.239Z,12.65
2023-03-22T09:32:30.150Z,12.66
2023-03-22T09:33:35.780Z,12.64
2023-03-22T09:34:38.631Z,12.81
2023-03-22T09:35:43.570Z,12.66
2023-03-22T09:36:47.747Z,12.50
2023-03-22T09:37:53.639Z,12.54
2023-03-22T09:38:56.716Z,12.70
2023-03-22T09:39:59.698Z,12.58
2023-03-22T09:41:18.387Z,12.55
2023-03-22T09:42:32.414Z,12.60
2023-03-22T09:44:03.780Z,12.58
2023-03-22T09:45:13.062Z,12.42
2023-03-22T09:46:24.539Z,12.42
2023-03-22T09:47:51.404Z,12.29
2023-03-22T09:48:54.500Z,12.21
2023-03-22T09:50:07.028Z,12.39
2023-03-22T09:51:28.290Z,12.50
2023-03-22T09:52:31.355Z,12.18
2023-03-22T09:53:34.629Z,12.10
2023-03-22T09:54:43.263Z,12.10
2023-03-22T09:55:51.111Z,12.14
2023-03-22T09:57:00.549Z,12.22
2023-03-22T09:58:22.229Z,12.22
2023-03-22T09:59:36.338Z,12.27
2023-03-22T10:00:51.906Z,12.39
2023-03-22T10:02:11.633Z,12.27
2023-03-22T10:03:25.024Z,12.17
2023-03-22T10:04:31.323Z,12.16
2023-03-22T10:05:48.723Z,12.16
2023-03-22T10:07:07.055Z,11.99
2023-03-22T10:08:33.874Z,12.25
2023-03-22T10:10:04.082Z,12.07
2023-03-22T10:11:22.878Z,12.07
2023-03-22T10:12:35.460Z,11.90
2023-03-22T10:13:57.917Z,12.26
2023-03-22T10:15:26.663Z,12.21
2023-03-22T10:16:34.170Z,12.35
2023-03-22T10:17:40.122Z,12.29
2023-03-22T10:18:48.904Z,12.38
2023-03-22T10:20:01.673Z,12.38
2023-03-22T10:21:06.742Z,12.34
2023-03-22T10:22:14.454Z,12.46
2023-03-22T10:23:24.764Z,12.53
2023-03-22T10:24:33.270Z,12.57
2023-03-22T10:25:40.162Z,12.57
2023-03-22T10:26:47.996Z,12.39
2023-03-22T10:27:51.959Z,12.41
2023-03-22T10:29:03.768Z,12.39
2023-03-22T10:30:18.942Z,12.38
2023-03-22T10:31:22.175Z,12.43
2023-03-22T10:32:57.102Z,12.64
2023-03-22T10:34:21.129Z,12.55
2023-03-22T10:35:23.982Z,12.48
2023-03-22T10:36:35.187Z,12.27
2023-03-22T10:37:40.415Z,12.27
2023-03-22T10:38:48.769Z,12.28
2023-03-22T10:39:56.019Z,12.59
2023-03-22T10:41:00.760Z,12.67
2023-03-22T10:42:08.437Z,12.70
2023-03-22T10:43:23.105Z,12.85
2023-03-22T10:44:30.740Z,12.59
2023-03-22T10:45:35.795Z,12.52
2023-03-22T10:46:43.538Z,12.83
2023-03-22T10:47:58.210Z,12.82
2023-03-22T10:49:02.601Z,12.81
2023-03-22T10:50:12.840Z,12.75
2023-03-22T10:51:31.315Z,12.88
2023-03-22T10:52:40.764Z,12.93
2023-03-22T10:53:50.894Z,12.85
2023-03-22T10:54:59.273Z,12.95
2023-03-22T10:56:05.446Z,13.12
2023-03-22T10:57:08.476Z,13.21
2023-03-22T10:58:16.839Z,13.38
2023-03-22T10:59:58.757Z,13.23
2023-03-22T11:01:13.707Z,13.04
2023-03-22T11:02:25.508Z,13.21
2023-03-22T11:03:37.456Z,13.34
2023-03-22T11:04:41.839Z,13.28
2023-03-22T11:05:59.080Z,13.19
2023-03-22T11:07:02.055Z,13.10
2023-03-22T11:08:07.040Z,13.11
2023-03-22T11:09:21.481Z,13.04
2023-03-22T11:10:33.129Z,12.88
2023-03-22T11:11:47.629Z,13.00
2023-03-22T11:12:54.241Z,13.17
2023-03-22T11:14:25.463Z,13.04
2023-03-22T11:15:32.618Z,13.03
2023-03-22T11:16:51.631Z,13.26
2023-03-22T11:18:10.795Z,13.36
2023-03-22T11:19:24.971Z,13.42
2023-03-22T11:20:37.739Z,13.24
2023-03-22T11:21:43.718Z,13.40
2023-03-22T11:22:49.682Z,13.29
2023-03-22T11:24:01.687Z,13.24
2023-03-22T11:25:15.146Z,13.51
2023-03-22T11:26:29.674Z,13.29
2023-03-22T11:27:34.080Z,13.41
2023-03-22T11:28:48.384Z,13.46
2023-03-22T11:29:59.637Z,13.33
2023-03-22T11:31:07.972Z,13.51
2023-03-22T11:32:26.534Z,13.68
2023-03-22T11:33:29.824Z,13.64
2023-03-22T11:34:32.762Z,13.78
2023-03-22T11:35:38.247Z,13.82
2023-03-22T11:36:51.443Z,13.98
2023-03-22T11:37:58.289Z,14.03
2023-03-22T11:39:07.537Z,14.03
2023-03-22T11:40:16.194Z,14.32
2023-03-22T11:41:53.290Z,14.36
2023-03-22T11:43:11.680Z,14.31
2023-03-22T11:44:18.281Z,14.49
2023-03-22T11:45:32.463Z,14.71
2023-03-22T11:46:37.040Z,14.90
2023-03-22T11:47:40.462Z,15.17
2023-03-22T11:48:46.535Z,15.22
2023-03-22T11:49:52.670Z,14.95
2023-03-22T11:51:10.011Z,15.08
2023-03-22T11:52:18.404Z,15.12
2023-03-22T11:53:27.554Z,15.16
2023-03-22T11:54:34.500Z,15.28
2023-03-22T11:55:37.592Z,15.28
2023-03-22T11:56:47.572Z,15.20
2023-03-22T11:57:50.625Z,15.00
2023-03-22T11:59:04.346Z,15.01
2023-03-22T12:00:20.768Z,15.05
2023-03-22T12:01:50.042Z,15.33
2023-03-22T12:03:00.838Z,15.06
2023-03-22T12:04:05.426Z,14.97
2023-03-22T12:05:35.033Z,14.82
2023-03-22T12:06:41.411Z,14.70
2023-03-22T12:07:45.072Z,14.62
2023-03-22T12:09:03.835Z,14.89
2023-03-22T12:10:21.836Z,14.97
2023-03-22T12:11:50.153Z,15.31
2023-03-22T12:12:58.721Z,15.20
2023-03-22T12:14:19.558Z,15.44
2023-03-22T12:15:30.289Z,15.34
2023-03-22T12:16:45.042Z,15.43
2023-03-22T12:18:01.188Z,15.40
2023-03-22T12:19:15.034Z,15.46
2023-03-22T12:20:35.437Z,15.27
2023-03-22T12:21:38.409Z,15.49
2023-03-22T12:22:48.253Z,15.52
2023-03-22T12:23:51.358Z,15.48
2023-03-22T12:24:54.394Z,15.46
2023-03-22T12:26:26.668Z,15.56
2023-03-22T12:27:37.712Z,15.60
2023-03-22T12:28:48.470Z,15.52
2023-03-22T12:30:19.691Z,15.67
2023-03-22T12:31:45.968Z,15.74
2023-03-22T12:32:59.411Z,15.50
2023-03-22T12:34:18.803Z,15.40
2023-03-22T12:35:29.698Z,15.91
2023-03-22T12:36:43.257Z,15.71
2023-03-22T12:37:51.878Z,15.75
2023-03-22T12:38:57.628Z,15.70
2023-03-22T12:40:16.153Z,15.70
2023-03-22T12:41:47.102Z,15.73
2023-03-22T12:43:03.884Z,15.64
2023-03-22T12:44:30.463Z,15.76
2023-03-22T12:45:40.813Z,16.10
2023-03-22T12:46:56.210Z,15.86
2023-03-22T12:48:19.530Z,15.64
2023-03-22T12:49:22.541Z,16.09
2023-03-22T12:51:00.833Z,15.98
2023-03-22T12:52:44.732Z,16.24
2023-03-22T12:53:55.091Z,16.23
2023-03-22T12:55:01.931Z,16.22
2023-03-22T12:56:05.355Z,16.02
2023-03-22T12:57:09.419Z,16.13
2023-03-22T12:58:22.502Z,16.43
2023-03-22T12:59:29.453Z,16.52
2023-03-22T13:00:38.679Z,16.50
2023-03-22T13:01:44.758Z,16.58
2023-03-22T13:03:04.046Z,16.70
2023-03-22T13:04:25.997Z,16.62
2023-03-22T13:05:32.674Z,16.81
2023-03-22T13:06:47.988Z,16.90
2023-03-22T13:07:54.581Z,16.49
2023-03-22T13:09:13.331Z,16.44
2023-03-22T13:10:31.521Z,16.83
2023-03-22T13:11:35.114Z,16.81
2023-03-22T13:12:38.953Z,16.49
2023-03-22T13:13:45.533Z,16.59
2023-03-22T13:14:51.456Z,17.01
2023-03-22T13:16:13.866Z,17.28
2023-03-22T13:17:25.880Z,17.48
2023-03-22T13:18:38.430Z,17.45
2023-03-22T13:20:15.882Z,17.51
2023-03-22T13:21:21.902Z,17.47
2023-03-22T13:22:36.753Z,17.67
2023-03-22T13:24:15.569Z,17.71
2023-03-22T13:25:19.839Z,17.74
2023-03-22T13:26:32.005Z,17.47
2023-03-22T13:27:46.461Z,17.54
2023-03-22T13:29:01.788Z,17.11
2023-03-22T13:30:19.446Z,17.18
2023-03-22T13:31:53.654Z,17.23
2023-03-22T13:33:13.714Z,17.18
2023-03-22T13:34:20.353Z,17.25
2023-03-22T13:35:44.810Z,16.92
2023-03-22T13:36:57.025Z,16.61
2023-03-22T13:38:08.778Z,17.06
2023-03-22T13:39:12.741Z,17.32
2023-03-22T13:40:38.196Z,17.31
2023-03-22T13:42:02.182Z,17.03
2023-03-22T13:43:27.686Z,16.72
2023-03-22T13:44:38.580Z,16.47
2023-03-22T13:46:16.796Z,15.84
2023-03-22T13:47:36.604Z,16.24
2023-03-22T13:48:48.782Z,16.39
2023-03-22T13:50:05.558Z,16.41
2023-03-22T13:51:22.866Z,16.27
2023-03-22T13:52:30.315Z,16.18
2023-03-22T13:53:37.004Z,16.04
2023-03-22T13:54:48.425Z,16.10
2023-03-22T13:55:52.032Z,15.97
2023-03-22T13:57:00.753Z,15.79
2023-03-22T13:58:06.099Z,15.60
2023-03-22T13:59:28.127Z,15.72
2023-03-22T14:00:39.183Z,15.59
2023-03-22T14:01:47.837Z,15.93
2023-03-22T14:02:51.481Z,15.92
2023-03-22T14:04:01.418Z,15.95
2023-03-22T14:05:15.048Z,16.10
2023-03-22T14:06:25.956Z,16.14
2023-03-22T14:07:47.302Z,16.00
2023-03-22T14:08:56.295Z,16.07
2023-03-22T14:10:13.350Z,15.34
2023-03-22T14:11:43.089Z,15.32
2023-03-22T14:13:11.868Z,15.60
2023-03-22T14:14:27.494Z,15.86
2023-03-22T14:15:36.464Z,15.79
2023-03-22T14:16:49.944Z,15.80
2023-03-22T14:18:21.541Z,15.66
2023-03-22T14:19:29.545Z,15.59
2023-03-22T14:20:35.988Z,15.43
2023-03-22T14:21:41.911Z,15.40
